Time;durP1;ratioP1;P1;durP2;ratioP2;P2;SDS_P1;SDS_P2;PMS_P1;PMS_P2;Temp;Humidity;BMP_temperature;BMP_pressure;BME280_temperature;BME280_humidity;BME280_pressure;Samples;Min_cycle;Max_cycle;Signal;HPM_P1;HPM_P2
2022/05/04 00:00:57;;;;;;;6.05;3.00;;;;;;;9.67;59.08;99028.34;5134546;27;20051;-82
2022/05/04 00:03:25;;;;;;;7.63;3.35;;;;;;;9.60;59.74;99038.81;5133981;27;20047;-83
2022/05/04 00:05:53;;;;;;;4.43;3.60;;;;;;;9.42;60.76;99023.25;5134347;27;20136;-81
2022/05/04 00:08:21;;;;;;;4.32;2.92;;;;;;;9.42;60.27;99036.28;5134077;27;20089;-82
2022/05/04 00:10:50;;;;;;;8.13;3.75;;;;;;;9.32;60.69;99040.69;5132666;27;20491;-82
2022/05/04 00:13:18;;;;;;;5.53;3.42;;;;;;;9.30;60.73;99039.81;5132702;27;20415;-82
2022/05/04 00:15:45;;;;;;;5.72;3.30;;;;;;;9.29;60.66;99055.47;5134109;27;20557;-81
2022/05/04 00:18:13;;;;;;;4.15;3.35;;;;;;;9.27;60.00;99031.16;5132861;27;20078;-81
2022/05/04 00:20:42;;;;;;;5.17;3.10;;;;;;;9.25;60.44;99033.78;5134196;27;20111;-81
2022/05/04 00:23:09;;;;;;;6.63;3.33;;;;;;;8.91;59.99;98967.94;5134260;27;20104;-82
2022/05/04 00:25:38;;;;;;;5.70;3.17;;;;;;;9.16;60.45;99031.19;5133994;27;20055;-82
2022/05/04 00:28:07;;;;;;;5.03;3.10;;;;;;;9.11;60.83;99039.03;5133064;27;20043;-81
2022/05/04 00:30:35;;;;;;;5.20;2.80;;;;;;;8.97;61.08;99046.91;5133911;27;20064;-82
2022/05/04 00:33:03;;;;;;;4.82;2.70;;;;;;;8.91;60.13;99020.88;5132377;28;20543;-81
2022/05/04 00:35:33;;;;;;;5.82;3.00;;;;;;;8.90;60.02;99036.50;5133727;28;20070;-81
2022/05/04 00:38:01;;;;;;;5.88;2.70;;;;;;;8.85;59.68;99046.09;5133730;27;20051;-80
2022/05/04 00:40:30;;;;;;;5.45;3.15;;;;;;;8.88;59.63;99061.69;5133483;28;20142;-81
2022/05/04 00:42:57;;;;;;;5.72;3.20;;;;;;;8.71;60.15;99036.56;5134669;28;20051;-82
2022/05/04 00:45:24;;;;;;;4.53;3.17;;;;;;;8.88;60.05;99052.13;5134314;27;20055;-80
2022/05/04 00:47:51;;;;;;;9.95;3.17;;;;;;;8.66;59.76;99007.06;5134345;28;20051;-79
2022/05/04 00:50:18;;;;;;;4.75;2.63;;;;;;;8.76;59.52;99034.81;5133679;27;20074;-80
2022/05/04 00:52:45;;;;;;;4.07;2.72;;;;;;;8.60;59.82;99002.75;5133538;27;20051;-81
2022/05/04 00:55:16;;;;;;;4.13;2.90;;;;;;;8.79;59.90;99047.81;5133569;27;20453;-81
2022/05/04 01:00:34;;;;;;;4.72;3.00;;;;;;;8.79;60.39;99047.81;5137931;27;20050;-80
2022/05/04 01:03:02;;;;;;;8.48;3.08;;;;;;;8.63;60.26;98996.66;5135373;27;20051;-80
2022/05/04 01:05:29;;;;;;;4.70;2.70;;;;;;;8.73;60.04;99013.13;5150124;27;20088;-80
2022/05/04 01:07:57;;;;;;;5.20;2.80;;;;;;;8.97;59.54;99049.50;5119153;27;20054;-81
2022/05/04 01:10:26;;;;;;;4.78;3.20;;;;;;;9.01;59.78;99047.75;5137821;27;20142;-81
2022/05/04 01:12:54;;;;;;;4.90;2.65;;;;;;;9.09;59.93;99052.94;5137568;27;20100;-82
2022/05/04 01:15:23;;;;;;;4.57;2.92;;;;;;;8.90;59.50;99007.84;5136789;27;20074;-82
2022/05/04 01:17:52;;;;;;;5.15;2.42;;;;;;;8.85;57.92;99007.00;5137651;27;20054;-82
2022/05/04 01:20:24;;;;;;;4.32;2.30;;;;;;;9.05;56.24;99059.03;5137166;27;20058;-82
2022/05/04 01:22:55;;;;;;;3.88;1.55;;;;;;;8.97;55.66;99023.47;5137674;27;20090;-83
2022/05/04 01:25:23;;;;;;;3.05;1.65;;;;;;;8.97;56.20;99022.56;5136101;27;20054;-81
2022/05/04 01:27:51;;;;;;;2.17;1.73;;;;;;;8.59;56.80;98968.91;5137301;27;20146;-80
2022/05/04 01:30:20;;;;;;;3.55;1.58;;;;;;;8.84;56.00;99026.09;5137274;27;20055;-80
2022/05/04 01:32:47;;;;;;;4.50;1.70;;;;;;;8.80;56.15;99027.88;5136899;27;20058;-81
2022/05/04 01:35:14;;;;;;;4.60;1.70;;;;;;;8.76;56.45;99002.72;5137160;27;20146;-81
2022/05/04 01:37:43;;;;;;;5.38;2.00;;;;;;;8.84;56.37;99026.09;5136128;27;20057;-82
2022/05/04 01:40:12;;;;;;;4.32;1.95;;;;;;;8.93;56.81;99036.50;5137444;27;20059;-81
2022/05/04 01:42:39;;;;;;;2.90;1.92;;;;;;;8.81;56.94;99008.75;5136493;27;20050;-81
2022/05/04 01:45:08;;;;;;;2.90;1.77;;;;;;;9.04;57.62;99060.78;5137470;27;20523;-81
2022/05/04 01:47:38;;;;;;;3.20;1.80;;;;;;;9.12;56.80;99035.56;5137010;27;20080;-82
2022/05/04 01:50:06;;;;;;;2.65;2.00;;;;;;;8.96;56.50;98989.59;5137120;27;20549;-82
2022/05/04 01:52:33;;;;;;;3.15;1.90;;;;;;;9.28;56.86;99038.97;5136944;27;20051;-82
2022/05/04 01:55:01;;;;;;;5.57;2.25;;;;;;;9.36;56.31;99046.75;5137127;27;20043;-81
2022/05/04 01:57:29;;;;;;;2.90;2.15;;;;;;;9.33;55.59;99020.69;5136768;27;20474;-82
2022/05/04 01:59:56;;;;;;;5.18;2.05;;;;;;;9.35;55.37;99043.28;5136924;27;20058;-80
2022/05/04 02:02:25;;;;;;;4.10;1.90;;;;;;;9.40;55.46;99028.50;5136657;27;20051;-82
2022/05/04 02:04:53;;;;;;;3.80;2.03;;;;;;;9.43;55.56;99036.28;5136663;27;20112;-82
2022/05/04 02:07:20;;;;;;;2.70;1.83;;;;;;;9.39;55.02;99028.50;5136499;27;20067;-83
2022/05/04 02:09:47;;;;;;;4.40;1.88;;;;;;;9.50;54.71;99047.53;5135412;27;20043;-82
2022/05/04 02:12:15;;;;;;;2.75;1.55;;;;;;;9.33;55.62;99018.94;5136658;27;20051;-83
2022/05/04 02:14:42;;;;;;;3.95;1.60;;;;;;;9.53;55.23;99044.94;5136274;27;20046;-83
2022/05/04 02:17:08;;;;;;;2.10;1.80;;;;;;;9.62;54.67;99049.22;5136072;27;20059;-84
2022/05/04 02:19:37;;;;;;;1.90;1.70;;;;;;;9.67;55.01;99038.78;5136247;27;20047;-82
2022/05/04 02:22:06;;;;;;;4.20;2.13;;;;;;;9.60;55.01;99033.59;5137010;27;20137;-82
2022/05/04 02:24:33;;;;;;;2.47;1.73;;;;;;;9.86;54.84;99053.41;5136023;27;20078;-82
2022/05/04 02:26:59;;;;;;;2.85;2.00;;;;;;;9.64;54.42;99000.53;5136193;27;20568;-82
2022/05/04 02:29:29;;;;;;;5.45;2.10;;;;;;;9.80;54.30;99020.41;5134649;27;20401;-83
2022/05/04 02:31:58;;;;;;;4.90;1.85;;;;;;;10.09;53.77;99049.78;5136165;27;20086;-81
2022/05/04 02:34:26;;;;;;;4.25;2.22;;;;;;;9.99;53.98;99034.19;5136066;27;20054;-82
2022/05/04 02:39:40;;;;;;;3.67;2.10;;;;;;;10.22;53.15;99054.03;5135340;27;20484;-81
2022/05/04 02:42:10;;;;;;;5.22;2.10;;;;;;;10.10;53.38;99055.00;5135859;27;20523;-81
2022/05/04 02:44:38;;;;;;;2.70;1.67;;;;;;;10.04;54.00;99066.34;5135525;27;20047;-81
2022/05/04 02:47:06;;;;;;;2.10;1.90;;;;;;;10.00;53.61;99062.03;5135752;27;20529;-80
2022/05/04 02:49:34;;;;;;;5.80;2.20;;;;;;;9.75;53.38;98993.50;5135370;27;20046;-79
2022/05/04 02:52:02;;;;;;;3.10;1.90;;;;;;;10.13;52.94;99017.56;5135381;27;20202;-81
2022/05/04 02:54:30;;;;;;;4.30;2.17;;;;;;;13.38;46.42;99055.69;5134176;27;20051;-80
2022/05/04 02:56:57;;;;;;;3.50;2.28;;;;;;;16.22;40.40;99058.75;5135479;27;20142;-81
2022/05/04 02:59:25;;;;;;;4.28;2.30;;;;;;;16.66;39.08;99056.38;5135337;27;20133;-80
2022/05/04 03:04:39;;;;;;;3.97;2.60;;;;;;;15.20;41.99;99070.56;5133875;27;20166;-82
2022/05/04 03:07:06;;;;;;;5.28;2.90;;;;;;;14.09;43.87;99066.34;5116650;27;20500;-82
2022/05/04 03:09:34;;;;;;;4.72;2.90;;;;;;;13.05;46.09;99072.03;5134903;27;20123;-82
2022/05/04 03:12:04;;;;;;;5.37;3.40;;;;;;;12.40;47.51;99061.84;5133580;27;20558;-81
2022/05/04 03:14:33;;;;;;;7.68;3.30;;;;;;;12.16;48.20;99091.06;5140641;27;20051;-81
2022/05/04 03:17:00;;;;;;;4.85;3.25;;;;;;;11.84;48.54;99074.91;5144450;27;20500;-82
2022/05/04 03:19:28;;;;;;;4.80;3.17;;;;;;;11.57;49.29;99104.94;5117024;27;20492;-82
2022/05/04 03:21:57;;;;;;;4.93;2.53;;;;;;;11.09;49.90;99088.94;5156173;27;20078;-82
2022/05/04 03:24:24;;;;;;;3.80;2.30;;;;;;;14.24;43.88;99112.41;5155685;27;20067;-82
2022/05/04 03:26:51;;;;;;;3.72;2.28;;;;;;;16.95;37.85;99062.44;5147337;27;20591;-81
2022/05/04 03:29:18;;;;;;;2.30;2.10;;;;;;;19.12;34.50;99097.13;5146866;27;20085;-82
2022/05/04 03:31:45;;;;;;;3.60;2.20;;;;;;;20.20;31.80;99053.28;5145218;27;20047;-81
2022/05/04 03:34:12;;;;;;;4.43;2.00;;;;;;;20.93;30.60;99103.66;5140447;27;20133;-81
2022/05/04 03:36:39;;;;;;;5.95;2.10;;;;;;;21.75;29.44;99096.72;5137633;27;20095;-82
2022/05/04 03:39:07;;;;;;;6.05;2.40;;;;;;;22.69;28.30;99105.59;5134567;27;20077;-83
2022/05/04 03:41:35;;;;;;;3.17;2.05;;;;;;;23.57;26.69;99087.03;5136759;27;20478;-83
2022/05/04 03:44:02;;;;;;;3.95;1.77;;;;;;;24.17;25.76;99097.44;5135540;27;20115;-82
2022/05/04 03:46:44;;;;;;;5.80;2.05;;;;;;;24.62;25.15;99090.06;5134996;27;20051;-83
2022/05/04 03:49:13;;;;;;;2.72;1.88;;;;;;;25.11;23.96;99068.03;5135216;27;20051;-82
2022/05/04 03:51:41;;;;;;;2.67;1.77;;;;;;;24.53;24.14;99088.00;5134268;27;20401;-83
2022/05/04 03:54:12;;;;;;;2.90;1.98;;;;;;;22.00;27.24;99101.53;5132413;27;20051;-83
2022/05/04 03:56:41;;;;;;;2.10;1.60;;;;;;;19.45;30.43;99109.78;5133601;27;20096;-82
2022/05/04 03:59:09;;;;;;;2.35;1.80;;;;;;;18.05;32.61;99104.16;5134167;27;20142;-81
2022/05/04 04:01:36;;;;;;;3.33;1.88;;;;;;;16.97;34.21;99105.47;5134580;27;20154;-81
2022/05/04 04:04:04;;;;;;;5.32;1.70;;;;;;;16.49;35.09;99101.75;5133135;27;20122;-83
2022/05/04 04:06:34;;;;;;;5.72;1.50;;;;;;;15.72;35.92;99093.66;5135105;27;20063;-86
2022/05/04 04:09:03;;;;;;;2.28;1.13;;;;;;;15.79;36.22;99135.56;5134755;27;20051;-84
2022/05/04 04:11:30;;;;;;;2.67;1.52;;;;;;;15.65;35.63;99089.41;5133142;27;20055;-84
2022/05/04 04:13:58;;;;;;;3.88;1.65;;;;;;;15.46;36.15;99114.56;5134410;27;20496;-82
2022/05/04 04:16:25;;;;;;;2.33;1.30;;;;;;;14.92;37.17;99114.25;5136387;27;20050;-83
2022/05/04 04:18:53;;;;;;;2.50;1.77;;;;;;;14.72;37.26;99130.53;5134524;27;20530;-82
2022/05/04 04:24:06;;;;;;;3.80;1.60;;;;;;;13.73;38.89;99089.91;5135867;27;20043;-87
2022/05/04 04:26:37;;;;;;;3.97;1.40;;;;;;;13.59;38.92;99054.38;5140249;27;20051;-83
2022/05/04 04:29:05;;;;;;;3.33;1.25;;;;;;;13.59;39.51;99130.47;5142149;27;20039;-83
2022/05/04 04:31:32;;;;;;;5.75;1.77;;;;;;;13.81;39.26;99137.00;5124167;28;20423;-81
2022/05/04 04:34:01;;;;;;;1.80;1.38;;;;;;;13.76;39.61;99124.88;5149763;27;20116;-80
2022/05/04 04:36:29;;;;;;;2.88;1.70;;;;;;;13.62;40.05;99109.41;5161367;27;20046;-83
2022/05/04 04:38:58;;;;;;;1.33;1.20;;;;;;;13.55;40.21;99115.66;5139417;27;20051;-80
2022/05/04 04:41:27;;;;;;;1.40;1.25;;;;;;;13.45;40.37;99121.13;5134847;28;20067;-82
2022/05/04 04:43:54;;;;;;;1.40;1.30;;;;;;;13.33;40.90;99129.22;5137658;27;20416;-83
2022/05/04 04:46:23;;;;;;;2.33;1.23;;;;;;;13.05;40.87;99085.13;5133999;27;20489;-84
2022/05/04 04:48:51;;;;;;;1.48;1.30;;;;;;;13.54;40.87;99132.31;5147158;27;20484;-84
2022/05/04 04:51:20;;;;;;;2.08;1.55;;;;;;;13.53;41.04;99136.72;5145320;27;20070;-83
2022/05/04 04:53:49;;;;;;;3.22;1.60;;;;;;;13.23;41.21;99125.03;5150865;27;20095;-85
2022/05/04 04:56:16;;;;;;;2.28;1.20;;;;;;;12.66;42.78;99140.00;5172798;27;20046;-83
2022/05/04 04:58:44;;;;;;;2.05;1.60;;;;;;;12.24;43.67;99100.53;5154750;27;20054;-82
2022/05/04 05:01:14;;;;;;;3.88;1.50;;;;;;;12.60;43.13;99123.50;5153229;27;20081;-83
2022/05/04 05:03:41;;;;;;;2.90;1.48;;;;;;;12.68;43.16;99119.00;5153216;27;20047;-81
2022/05/04 05:06:13;;;;;;;3.03;1.58;;;;;;;12.64;43.09;99094.63;5133688;28;20069;-80
2022/05/04 05:08:42;;;;;;;2.28;1.40;;;;;;;13.51;42.33;99139.38;5133515;28;20047;-82
2022/05/04 05:11:11;;;;;;;2.35;1.33;;;;;;;13.83;41.18;99131.69;5133664;28;20051;-79
2022/05/04 05:16:06;;;;;;;1.33;0.98;;;;;;;13.83;40.92;99148.34;5132976;28;20405;-84
2022/05/04 05:16:28;;;;;;;1.75;1.08;;;;;;;13.44;41.26;99150.88;5132949;28;20510;-81
2022/05/04 05:18:55;;;;;;;2.72;0.98;;;;;;;12.84;42.45;99132.72;5133913;28;20127;-83
2022/05/04 05:21:27;;;;;;;2.55;1.00;;;;;;;12.49;43.77;99142.03;5133241;28;20458;-80
2022/05/04 05:23:57;;;;;;;1.00;0.90;;;;;;;12.07;44.18;99107.78;5133507;28;20082;-77
2022/05/04 05:26:24;;;;;;;0.70;0.70;;;;;;;12.12;44.66;99168.78;5133224;28;20055;-81
2022/05/04 05:28:52;;;;;;;1.00;0.90;;;;;;;11.91;44.85;99156.81;5133429;28;20134;-79
2022/05/04 05:31:22;;;;;;;1.35;1.10;;;;;;;11.77;45.31;99149.13;5131087;28;20412;-81
2022/05/04 05:33:50;;;;;;;1.67;1.05;;;;;;;11.69;45.98;99109.97;5111146;28;20130;-80
2022/05/04 05:36:16;;;;;;;1.60;1.10;;;;;;;12.04;46.01;99175.84;5111677;28;20062;-84
2022/05/04 05:38:46;;;;;;;1.27;1.02;;;;;;;11.99;45.71;99172.44;5113006;28;20051;-80
2022/05/04 05:41:15;;;;;;;3.30;2.33;;;;;;;11.98;46.03;99155.00;5112031;28;20055;-81
2022/05/04 05:43:41;;;;;;;3.30;1.30;;;;;;;11.92;45.91;99142.03;5112552;28;20075;-80
2022/05/04 05:46:11;;;;;;;1.02;0.95;;;;;;;11.85;46.59;99155.16;5112054;28;20054;-79
2022/05/04 05:48:39;;;;;;;3.60;1.90;;;;;;;11.64;47.03;99160.66;5113397;28;20056;-81
2022/05/04 05:51:07;;;;;;;1.93;1.10;;;;;;;11.43;46.77;99151.28;5119400;27;20047;-81
2022/05/04 05:53:36;;;;;;;3.33;1.38;;;;;;;10.97;47.45;99089.94;5137150;27;20050;-81
2022/05/04 05:56:04;;;;;;;2.75;1.13;;;;;;;11.15;47.55;99154.22;5145095;27;20047;-81
2022/05/04 05:58:31;;;;;;;3.35;1.27;;;;;;;11.04;47.25;99153.47;5154822;27;20071;-81
2022/05/04 06:00:59;;;;;;;2.20;1.15;;;;;;;10.98;47.38;99159.59;5137101;27;20051;-81
2022/05/04 06:03:29;;;;;;;1.85;1.40;;;;;;;11.15;46.80;99161.19;5137760;27;20047;-81
2022/05/04 06:05:56;;;;;;;1.35;1.13;;;;;;;11.27;46.17;99158.44;5137096;27;20043;-80
2022/05/04 06:08:23;;;;;;;3.33;1.20;;;;;;;11.26;46.63;99136.66;5133935;27;20184;-81
2022/05/04 06:10:50;;;;;;;3.13;1.60;;;;;;;11.73;45.62;99151.81;5125107;27;20046;-80
2022/05/04 06:13:18;;;;;;;7.68;1.75;;;;;;;12.31;44.79;99176.38;5127676;27;20074;-80
2022/05/04 06:15:45;;;;;;;4.38;1.60;;;;;;;12.54;44.91;99181.25;5125793;27;20058;-80
2022/05/04 06:18:13;;;;;;;3.53;1.42;;;;;;;12.69;44.31;99155.69;5124816;27;20168;-81
2022/05/04 06:20:39;;;;;;;2.25;1.73;;;;;;;13.00;43.91;99177.88;5126297;27;20080;-81
2022/05/04 06:23:08;;;;;;;3.78;1.85;;;;;;;13.27;43.22;99179.13;5122756;27;20104;-82
2022/05/04 06:25:37;;;;;;;;;;;;;;;13.68;43.08;99178.38;5125989;27;20134;-84
2022/05/04 06:28:05;;;;;;;1.92;1.73;;;;;;;13.86;42.17;99184.16;5136574;27;20299;-82
2022/05/04 06:36:05;;;;;;;7.70;2.10;;;;;;;14.49;41.08;99164.38;5130988;27;20099;-81
2022/05/04 06:38:32;;;;;;;6.25;2.08;;;;;;;14.72;40.77;99158.59;5135814;27;20046;-83
2022/05/04 06:41:00;;;;;;;3.15;2.00;;;;;;;14.40;40.50;99162.81;5132428;27;20119;-82
2022/05/04 06:43:27;;;;;;;2.95;1.95;;;;;;;13.68;41.74;99120.66;5135612;27;20047;-83
2022/05/04 06:45:54;;;;;;;4.35;2.17;;;;;;;14.19;41.16;99164.16;5135299;27;20047;-82
2022/05/04 06:48:22;;;;;;;5.40;1.90;;;;;;;14.41;40.98;99180.31;5135479;27;20055;-80
2022/05/04 06:50:50;;;;;;;2.63;2.05;;;;;;;14.53;40.45;99169.50;5135006;27;20066;-81
2022/05/04 06:53:17;;;;;;;5.90;2.50;;;;;;;14.11;41.07;99139.84;5135329;27;20043;-81
2022/05/04 06:55:45;;;;;;;5.60;2.50;;;;;;;13.50;41.55;99142.00;5140873;27;20132;-85
2022/05/04 06:58:11;;;;;;;6.45;2.33;;;;;;;13.29;42.96;99164.28;5141829;27;20081;-82
2022/05/04 07:00:38;;;;;;;5.15;2.60;;;;;;;13.26;42.83;99196.63;5138310;27;20058;-83
2022/05/04 07:03:05;;;;;;;5.95;2.65;;;;;;;12.66;43.60;99196.78;5134982;27;20112;-86
2022/05/04 07:05:32;;;;;;;2.88;2.10;;;;;;;12.28;43.68;99193.88;5136307;27;20049;-83
2022/05/04 07:08:00;;;;;;;2.47;1.70;;;;;;;12.03;43.37;99175.00;5136316;27;20055;-81
2022/05/04 07:10:29;;;;;;;2.20;1.65;;;;;;;12.29;42.73;99184.25;5134139;27;20500;-83
2022/05/04 07:12:56;;;;;;;4.88;1.60;;;;;;;12.21;42.53;99154.69;5135310;27;20054;-81
2022/05/04 07:15:23;;;;;;;4.10;1.85;;;;;;;12.40;42.38;99178.84;5135443;27;20055;-82
2022/05/04 07:17:50;;;;;;;3.28;2.00;;;;;;;12.72;41.98;99178.34;5139642;27;20058;-79
2022/05/04 07:20:19;;;;;;;6.32;1.90;;;;;;;13.27;40.95;99192.25;5147167;27;20062;-82
2022/05/04 07:22:46;;;;;;;3.63;1.88;;;;;;;13.45;39.68;99142.09;5148471;27;20074;-82
2022/05/04 07:25:13;;;;;;;5.07;2.00;;;;;;;13.95;38.87;99191.84;5147814;27;20055;-82
2022/05/04 07:27:40;;;;;;;6.75;2.10;;;;;;;13.93;38.44;99191.00;5145679;27;20146;-84
2022/05/04 07:30:07;;;;;;;4.93;1.73;;;;;;;13.42;38.97;99210.38;5136699;27;20047;-82
2022/05/04 07:32:34;;;;;;;2.35;1.65;;;;;;;12.54;40.78;99233.63;5136407;27;20051;-82
2022/05/04 07:35:02;;;;;;;9.57;1.90;;;;;;;11.68;44.24;99246.06;5136147;27;20511;-84
2022/05/04 07:37:29;;;;;;;4.13;1.70;;;;;;;10.54;49.27;99308.81;5147666;27;20078;-82
2022/05/04 07:42:42;;;;;;;2.85;1.48;;;;;;;7.88;59.01;99330.44;5133972;27;20071;-85
2022/05/04 07:45:12;;;;;;;2.20;1.67;;;;;;;7.31;62.04;99329.16;5133151;27;20420;-83
2022/05/04 07:47:39;;;;;;;2.30;1.40;;;;;;;7.04;62.49;99320.28;5135415;27;20454;-82
2022/05/04 07:50:11;;;;;;;2.67;1.42;;;;;;;6.84;63.15;99359.06;5135124;27;20500;-84
2022/05/04 07:52:43;;;;;;;4.07;0.88;;;;;;;6.08;63.67;99292.44;5144471;27;20077;-84
2022/05/04 07:55:12;;;;;;;4.97;1.20;;;;;;;6.06;64.35;99306.25;5149408;27;20031;-81
2022/05/04 07:57:47;;;;;;;1.33;0.98;;;;;;;6.21;63.81;99277.91;5154918;27;20107;-82
2022/05/04 08:05:55;;;;;;;4.78;1.10;;;;;;;7.98;61.97;99269.81;5134486;27;20047;-84
2022/05/04 08:08:23;;;;;;;2.70;1.20;;;;;;;8.57;61.55;99320.34;5134531;27;20101;-79
2022/05/04 08:10:51;;;;;;;1.40;1.30;;;;;;;8.88;60.88;99324.75;5135128;27;20081;-82
2022/05/04 08:13:19;;;;;;;2.67;1.40;;;;;;;8.93;61.40;99313.47;5134907;27;20047;-80
2022/05/04 08:15:49;;;;;;;1.88;1.38;;;;;;;9.01;60.33;99310.88;5135252;27;20043;-81
2022/05/04 08:18:17;;;;;;;3.72;1.50;;;;;;;9.01;61.16;99327.38;5133082;27;20050;-82
2022/05/04 08:20:44;;;;;;;1.92;1.50;;;;;;;9.16;61.00;99330.84;5134306;27;20047;-83
2022/05/04 08:23:12;;;;;;;1.38;1.27;;;;;;;9.19;59.59;99326.53;5132877;27;20118;-83
2022/05/04 08:25:39;;;;;;;3.42;1.33;;;;;;;9.02;58.42;99290.03;5133981;27;20043;-82
2022/05/04 08:28:13;;;;;;;3.90;1.35;;;;;;;9.53;59.16;99316.09;5133976;27;20162;-81
2022/05/04 08:30:41;;;;;;;2.13;1.55;;;;;;;10.27;56.22;99339.38;5133855;27;20047;-82
2022/05/04 08:33:09;;;;;;;3.45;1.83;;;;;;;10.34;57.13;99340.25;5135617;27;20046;-81
2022/05/04 08:35:36;;;;;;;1.38;1.20;;;;;;;10.24;56.78;99342.03;5132566;27;20139;-81
2022/05/04 08:38:04;;;;;;;8.15;4.28;;;;;;;10.59;57.06;99354.94;5133789;27;20073;-82
2022/05/04 08:40:33;;;;;;;1.67;1.30;;;;;;;10.42;53.32;99341.09;5115591;28;20415;-82
2022/05/04 08:43:07;;;;;;;4.43;1.33;;;;;;;10.29;54.21;99365.50;5133624;28;20047;-82
2022/05/04 08:45:39;;;;;;;2.90;1.30;;;;;;;10.07;51.95;99325.53;5133170;28;20048;-84
2022/05/04 08:48:08;;;;;;;2.72;1.13;;;;;;;10.25;49.97;99380.28;5133414;27;20365;-83
2022/05/04 08:50:39;;;;;;;2.65;0.95;;;;;;;10.03;50.45;99366.44;5133884;28;20103;-82
2022/05/04 08:53:07;;;;;;;1.40;1.10;;;;;;;9.46;51.22;99314.34;5133610;27;20043;-82
2022/05/04 08:55:38;;;;;;;1.42;1.10;;;;;;;9.78;51.73;99358.63;5134032;27;20140;-82
2022/05/04 08:58:06;;;;;;;1.60;1.30;;;;;;;10.00;51.82;99380.34;5133641;27;20051;-82
2022/05/04 09:00:36;;;;;;;1.38;1.10;;;;;;;10.16;49.81;99365.53;5134831;28;20150;-83
2022/05/04 09:03:03;;;;;;;1.13;1.02;;;;;;;9.97;48.49;99327.31;5151376;27;20074;-82
2022/05/04 09:05:30;;;;;;;2.85;1.20;;;;;;;10.28;48.80;99369.81;5148211;27;20047;-83
2022/05/04 09:07:58;;;;;;;1.33;1.05;;;;;;;10.38;46.84;99378.53;5139699;28;20046;-83
2022/05/04 09:10:34;;;;;;;1.58;1.15;;;;;;;10.43;45.96;99372.44;5140652;27;20476;-84
2022/05/04 09:13:05;;;;;;;2.05;1.15;;;;;;;10.69;45.43;99367.94;5137586;28;20051;-82
2022/05/04 09:15:35;;;;;;;2.30;1.10;;;;;;;11.16;45.02;99372.88;5134169;27;20408;-83
2022/05/04 09:18:16;;;;;;;1.63;1.00;;;;;;;10.88;43.20;99358.28;5133814;28;20424;-86
2022/05/04 09:20:48;;;;;;;2.63;1.50;;;;;;;10.51;43.79;99368.91;5115558;28;20051;-82
2022/05/04 09:23:21;;;;;;;1.80;1.45;;;;;;;10.07;45.13;99322.91;5132453;28;20051;-81
2022/05/04 09:25:53;;;;;;;2.58;1.10;;;;;;;10.24;43.97;99318.53;5132780;27;20137;-79
2022/05/04 09:28:26;;;;;;;1.70;1.40;;;;;;;10.79;42.53;99361.81;5137536;27;20051;-80
2022/05/04 09:30:58;;;;;;;2.55;1.38;;;;;;;11.04;40.83;99379.09;5136972;27;20054;-80
2022/05/04 09:33:30;;;;;;;10.02;4.43;;;;;;;11.26;41.16;99356.28;5149931;27;20043;-82
2022/05/04 09:36:00;;;;;;;2.78;1.50;;;;;;;11.36;41.55;99393.69;5157754;27;20051;-82
2022/05/04 09:46:58;;;;;;;2.08;1.15;;;;;;;9.94;41.92;99401.25;5136419;27;20508;-81
2022/05/04 09:49:33;;;;;;;2.15;1.38;;;;;;;10.21;41.60;99415.97;5137086;27;20051;-81
2022/05/04 09:52:04;;;;;;;1.85;1.40;;;;;;;10.49;41.38;99397.63;5137284;27;20107;-81
2022/05/04 09:54:32;;;;;;;1.70;1.17;;;;;;;10.99;39.92;99419.19;5136744;27;20141;-82
2022/05/04 09:57:06;;;;;;;1.88;1.15;;;;;;;11.11;39.05;99424.34;5153606;27;20054;-84
2022/05/04 09:59:36;;;;;;;4.95;1.10;;;;;;;11.25;38.77;99422.53;5140347;27;20111;-83
2022/05/04 10:02:09;;;;;;;3.58;2.53;;;;;;;11.53;39.15;99430.19;5157263;27;20050;-82
2022/05/04 10:04:38;;;;;;;1.85;1.50;;;;;;;10.98;38.98;99371.28;5158410;27;20050;-83
2022/05/04 10:07:10;;;;;;;3.35;1.40;;;;;;;10.83;40.59;99421.00;5157229;27;20461;-82
2022/05/04 10:09:39;;;;;;;2.70;1.17;;;;;;;10.78;41.37;99465.44;5157638;27;20092;-83
2022/05/04 10:12:07;;;;;;;3.67;1.60;;;;;;;10.28;42.20;99435.09;5156267;27;20050;-84
2022/05/04 10:14:34;;;;;;;3.20;1.40;;;;;;;9.79;43.71;99409.09;5157894;27;20150;-83
2022/05/04 10:17:35;;;;;;;4.57;2.70;;;;;;;9.64;43.53;99462.97;5157884;27;20103;-84
2022/05/04 10:20:11;;;;;;;3.60;1.52;;;;;;;9.20;44.52;99484.59;5095813;27;20170;-85
2022/05/04 10:22:49;;;;;;;3.15;1.05;;;;;;;9.22;43.60;99477.66;5175403;27;20046;-84
2022/05/04 10:25:17;;;;;;;2.25;1.15;;;;;;;9.10;42.54;99451.59;5159186;27;20054;-85
2022/05/04 10:27:46;;;;;;;1.75;1.20;;;;;;;9.81;41.50;99489.06;5159877;27;20153;-83
2022/05/04 10:30:32;;;;;;;1.70;0.90;;;;;;;10.15;40.95;99493.41;5148407;27;20055;-84
2022/05/04 10:33:05;;;;;;;1.50;0.82;;;;;;;10.41;39.75;99465.56;5136101;27;20053;-84
2022/05/04 10:35:33;;;;;;;0.70;0.70;;;;;;;10.50;39.37;99448.16;5136866;27;20051;-88
2022/05/04 10:38:01;;;;;;;2.45;1.00;;;;;;;10.88;39.42;99465.41;5136675;27;20564;-85
2022/05/04 10:40:37;;;;;;;1.88;0.93;;;;;;;10.79;38.47;99433.22;5157688;27;20590;-84
2022/05/04 10:43:09;;;;;;;3.42;1.00;;;;;;;10.82;37.93;99421.91;5158696;27;20527;-83
2022/05/04 10:45:39;;;;;;;2.40;0.95;;;;;;;11.03;36.10;99440.09;5158646;27;20046;-83
2022/05/04 10:48:19;;;;;;;1.88;0.75;;;;;;;11.38;35.37;99454.69;5151512;27;20047;-83
2022/05/04 10:50:52;;;;;;;2.88;1.45;;;;;;;10.96;35.14;99406.13;5132560;27;20057;-82
2022/05/04 10:53:28;;;;;;;8.65;3.65;;;;;;;11.15;35.18;99440.88;5133567;27;20066;-85
2022/05/04 10:56:17;;;;;;;1.27;0.95;;;;;;;11.11;35.15;99440.03;5143981;27;20065;-85
2022/05/04 10:58:55;;;;;;;1.88;1.23;;;;;;;11.03;35.44;99452.25;5130747;27;20055;-82
2022/05/04 11:01:37;;;;;;;1.85;1.40;;;;;;;10.42;35.66;99394.19;5115290;28;20070;-84
2022/05/04 11:04:11;;;;;;;3.05;1.30;;;;;;;10.57;36.03;99439.41;5143258;27;20065;-86
2022/05/04 11:06:45;;;;;;;2.05;1.38;;;;;;;10.64;36.35;99444.59;5163321;27;20057;-83
2022/05/04 11:09:15;;;;;;;3.83;1.50;;;;;;;10.75;35.43;99444.53;5165540;27;20074;-87
2022/05/04 11:11:45;;;;;;;3.38;1.60;;;;;;;10.41;35.86;99387.25;5159933;27;20047;-81
2022/05/04 11:14:14;;;;;;;2.70;1.88;;;;;;;10.94;34.96;99463.63;5135871;27;20523;-85
2022/05/04 11:16:48;;;;;;;2.22;1.30;;;;;;;10.97;35.25;99458.41;5157331;27;20051;-84
2022/05/04 11:19:18;;;;;;;4.85;1.42;;;;;;;11.00;35.28;99434.84;5149235;27;20057;-88
2022/05/04 11:21:47;;;;;;;4.07;1.60;;;;;;;11.29;34.79;99462.56;5155697;27;20160;-81
2022/05/04 11:24:16;;;;;;;3.38;1.67;;;;;;;11.45;34.72;99450.28;5155817;27;20099;-84
2022/05/04 11:26:46;;;;;;;2.80;1.80;;;;;;;11.34;34.92;99446.88;5156328;27;20050;-84
2022/05/04 11:29:19;;;;;;;24.55;11.88;;;;;;;11.54;35.47;99460.69;5156164;27;20564;-82
2022/05/04 11:31:54;;;;;;;4.80;2.42;;;;;;;11.28;36.58;99490.47;5156261;27;20054;-85
2022/05/04 11:34:27;;;;;;;3.92;1.92;;;;;;;10.33;39.51;99463.84;5155043;27;20046;-85
2022/05/04 11:36:56;;;;;;;4.75;2.50;;;;;;;9.64;40.98;99486.44;5137198;27;20058;-83
2022/05/04 11:39:27;;;;;;;4.55;1.85;;;;;;;9.28;43.66;99526.34;5120546;27;20118;-84
2022/05/04 11:41:56;;;;;;;4.28;1.98;;;;;;;8.79;46.44;99550.44;5155365;27;20449;-84
2022/05/04 11:44:25;;;;;;;6.25;2.20;;;;;;;8.16;49.39;99502.28;5155335;27;20050;-84
2022/05/04 11:47:00;;;;;;;2.30;1.85;;;;;;;8.12;49.89;99556.00;5154824;27;20053;-83
2022/05/04 11:49:29;;;;;;;5.30;2.97;;;;;;;7.73;51.08;99547.00;5155814;27;20043;-82
2022/05/04 11:51:58;;;;;;;3.17;2.13;;;;;;;7.37;51.73;99517.16;5156554;27;20047;-84
2022/05/04 11:54:26;;;;;;;6.38;3.50;;;;;;;7.65;52.08;99578.97;5156284;27;20180;-84
2022/05/04 11:56:53;;;;;;;3.00;2.28;;;;;;;7.59;51.70;99525.19;5155550;27;20057;-82
2022/05/04 11:59:31;;;;;;;3.10;1.70;;;;;;;8.41;50.11;99552.81;5155108;27;20982;-83
2022/05/04 12:02:00;;;;;;;3.03;1.60;;;;;;;8.99;48.45;99552.28;5154094;27;20054;-82
2022/05/04 12:04:28;;;;;;;2.70;1.80;;;;;;;9.31;47.74;99541.97;5155295;27;20467;-81
2022/05/04 12:06:59;;;;;;;2.97;2.08;;;;;;;9.31;47.32;99497.66;5157683;27;20061;-84
2022/05/04 12:09:26;;;;;;;3.30;1.73;;;;;;;9.74;46.42;99536.88;5158325;27;20054;-83
2022/05/04 12:11:54;;;;;;;3.40;2.10;;;;;;;10.04;46.20;99545.59;5155532;27;20487;-81
2022/05/04 12:14:20;;;;;;;3.40;1.98;;;;;;;10.34;44.87;99529.09;5155160;27;20050;-84
2022/05/04 12:16:49;;;;;;;8.32;2.53;;;;;;;10.49;44.76;99509.06;5155210;27;20043;-85
2022/05/04 12:19:20;;;;;;;3.97;1.90;;;;;;;10.73;44.76;99561.25;5153884;27;20050;-84